Oneida Indian Reservation, Wisconsin
Current Conditions -  °F | °C
As of 9:53 AM on Thursday 29 Jan 2015 (Local Time) from KASX Reporting Station
Overcast Overcast  
Wind Chill: 18°   Ceiling: 2600
Heat Index: 29°   Visibility: 10mi
Dew Point: 20°   Wind: 14mph
Humidity: 69%   Direction: 340°NNW
Pressure: 30.07"   Gusts: NA
Location:  46.543°N, 90.8706°W
Report Text: KASX 291553Z AUTO 34012KT 10SM BKN026 BKN031 OVC055 M02/M07 A3007 RMK AO2 SLP196 T10171067
Loading
Personal Weather Stations






























Interactive Weather Map New forecast layout! Learn more

10-Day Weather Forecast

Advertisements
Track Severe Weather on mobile